Time;durP1;ratioP1;P1;durP2;ratioP2;P2;SDS_P1;SDS_P2;PMS_P1;PMS_P2;Temp;Humidity;BMP_temperature;BMP_pressure;BME280_temperature;BME280_humidity;BME280_pressure;Samples;Min_cycle;Max_cycle;Signal;HPM_P1;HPM_P2
2023/07/12 00:00:53;;;;;;;3.25;1.50;;;21.90;96.10;;;;;;5036626;28;20020;-93
2023/07/12 00:03:21;;;;;;;3.58;1.52;;;21.90;96.20;;;;;;5036128;28;20117;-94
2023/07/12 00:05:47;;;;;;;1.80;1.40;;;21.90;96.20;;;;;;5036363;28;20120;-94
2023/07/12 00:08:25;;;;;;;1.70;1.40;;;21.80;96.20;;;;;;5041331;28;20068;-94
2023/07/12 00:10:53;;;;;;;1.60;1.20;;;21.80;96.30;;;;;;5042545;28;20030;-93
2023/07/12 00:13:19;;;;;;;2.25;1.40;;;21.80;96.30;;;;;;5036705;28;20029;-93
2023/07/12 00:15:47;;;;;;;3.03;1.58;;;21.80;96.40;;;;;;5056963;28;20033;-94
2023/07/12 00:18:18;;;;;;;3.60;1.70;;;21.80;96.30;;;;;;5051772;28;20029;-94
2023/07/12 00:20:45;;;;;;;2.03;1.10;;;21.80;96.30;;;;;;5036681;28;20029;-94
2023/07/12 00:23:14;;;;;;;1.75;1.15;;;21.80;96.30;;;;;;5036247;28;20393;-94
2023/07/12 00:25:42;;;;;;;3.33;1.42;;;21.70;96.40;;;;;;5036472;28;20033;-93
2023/07/12 00:28:29;;;;;;;2.80;1.60;;;21.70;96.30;;;;;;5035096;28;20128;-94
2023/07/12 00:30:56;;;;;;;2.95;1.45;;;21.70;96.40;;;;;;5036725;28;20022;-95
2023/07/12 00:33:23;;;;;;;2.45;1.63;;;21.70;96.30;;;;;;5035960;28;20026;-94
2023/07/12 00:35:51;;;;;;;2.90;1.30;;;21.70;96.40;;;;;;5036110;28;20026;-94
2023/07/12 00:38:27;;;;;;;2.53;1.58;;;21.60;96.30;;;;;;5036292;28;20023;-94
2023/07/12 00:40:58;;;;;;;3.38;1.38;;;21.60;96.30;;;;;;5022729;28;20029;-94
2023/07/12 00:43:43;;;;;;;2.35;1.80;;;21.60;96.40;;;;;;5047567;28;20069;-93
2023/07/12 00:46:31;;;;;;;1.98;1.42;;;21.60;96.20;;;;;;5057256;28;20041;-89
2023/07/12 00:48:57;;;;;;;2.25;1.70;;;21.50;96.20;;;;;;5055092;28;20044;-94
2023/07/12 00:52:00;;;;;;;2.30;1.90;;;21.50;96.20;;;;;;5039307;28;20017;-93
2023/07/12 00:54:46;;;;;;;2.70;1.70;;;21.40;96.20;;;;;;5033567;28;20488;-93
2023/07/12 00:57:12;;;;;;;3.22;1.67;;;21.40;96.20;;;;;;5016234;28;20022;-94
2023/07/12 00:59:39;;;;;;;3.40;1.50;;;21.30;96.20;;;;;;5015093;28;20022;-94
2023/07/12 01:02:05;;;;;;;3.42;1.80;;;21.30;96.20;;;;;;5015473;28;20144;-95
2023/07/12 01:04:45;;;;;;;7.22;2.15;;;21.30;96.10;;;;;;5025062;28;20044;-94
2023/07/12 01:07:14;;;;;;;3.65;1.73;;;21.20;96.20;;;;;;5034661;28;20017;-92
2023/07/12 01:09:40;;;;;;;2.58;1.73;;;21.20;96.10;;;;;;5006707;28;20034;-94
2023/07/12 01:12:06;;;;;;;3.58;1.70;;;21.20;96.00;;;;;;5017337;28;20030;-92
2023/07/12 01:14:32;;;;;;;3.67;1.60;;;21.10;96.00;;;;;;5034358;28;20056;-94
2023/07/12 01:17:02;;;;;;;4.22;1.60;;;21.10;95.90;;;;;;5035636;28;20021;-93
2023/07/12 01:19:33;;;;;;;4.78;1.77;;;21.00;95.90;;;;;;5035075;28;20036;-94
2023/07/12 01:21:59;;;;;;;3.30;1.80;;;21.00;95.90;;;;;;5037972;28;20075;-94
2023/07/12 01:24:27;;;;;;;6.18;1.75;;;20.90;95.80;;;;;;5034820;28;20037;-93
2023/07/12 01:26:59;;;;;;;5.18;2.00;;;20.90;95.70;;;;;;5039665;28;20029;-93
2023/07/12 01:29:27;;;;;;;4.15;1.88;;;20.80;95.80;;;;;;5055319;28;20461;-94
2023/07/12 01:31:56;;;;;;;3.53;1.80;;;20.70;95.80;;;;;;5021798;28;20037;-93
2023/07/12 01:34:25;;;;;;;4.03;1.90;;;20.70;95.90;;;;;;5055871;28;20075;-93
2023/07/12 01:36:55;;;;;;;3.28;2.08;;;20.60;95.90;;;;;;5017892;28;20027;-92
2023/07/12 01:39:21;;;;;;;4.82;2.10;;;20.60;96.00;;;;;;5034241;28;20022;-93
2023/07/12 01:41:47;;;;;;;3.15;1.75;;;20.60;96.20;;;;;;5044753;28;20023;-93
2023/07/12 01:44:18;;;;;;;8.18;2.17;;;20.50;95.90;;;;;;5055146;28;20025;-93
2023/07/12 01:46:47;;;;;;;4.60;2.17;;;20.50;96.00;;;;;;5037704;28;20556;-94
2023/07/12 01:49:15;;;;;;;3.97;2.00;;;20.50;96.00;;;;;;5037421;28;20025;-93
2023/07/12 01:51:44;;;;;;;6.97;2.10;;;20.50;96.00;;;;;;5038640;28;20009;-93
2023/07/12 01:54:12;;;;;;;6.30;2.13;;;20.40;96.00;;;;;;5025160;28;20040;-93
2023/07/12 01:56:43;;;;;;;4.35;2.13;;;20.40;96.00;;;;;;5042019;28;20049;-94
2023/07/12 01:59:10;;;;;;;4.07;2.25;;;20.40;96.00;;;;;;5040999;28;20033;-95
2023/07/12 02:01:36;;;;;;;5.80;2.00;;;20.40;96.10;;;;;;5059006;28;20812;-93
2023/07/12 02:04:02;;;;;;;6.90;1.80;;;20.40;96.10;;;;;;5035057;28;20025;-93
2023/07/12 02:06:28;;;;;;;7.78;2.30;;;20.50;96.20;;;;;;5050947;28;20064;-93
2023/07/12 02:08:56;;;;;;;5.07;1.80;;;20.50;96.20;;;;;;5057119;28;20017;-93
2023/07/12 02:11:22;;;;;;;7.45;2.17;;;20.50;96.30;;;;;;5060837;28;20027;-93
2023/07/12 02:13:47;;;;;;;6.43;2.25;;;20.50;96.30;;;;;;5079078;28;20016;-93
2023/07/12 02:16:13;;;;;;;6.13;1.90;;;20.50;96.30;;;;;;5064456;28;20036;-93
2023/07/12 02:18:39;;;;;;;4.85;2.08;;;20.50;96.30;;;;;;5024347;28;20036;-95
2023/07/12 02:21:04;;;;;;;4.47;2.25;;;20.50;96.30;;;;;;5059166;28;20078;-93
2023/07/12 02:23:30;;;;;;;6.03;2.10;;;20.50;96.30;;;;;;5041291;28;20480;-93
2023/07/12 02:25:56;;;;;;;7.40;1.85;;;20.40;96.40;;;;;;5041685;28;20125;-94
2023/07/12 02:28:26;;;;;;;4.00;1.77;;;20.40;96.50;;;;;;5021824;28;20045;-94
2023/07/12 02:30:52;;;;;;;4.88;2.00;;;20.50;96.60;;;;;;5038903;28;20022;-93
2023/07/12 02:33:23;;;;;;;3.92;2.15;;;20.50;96.60;;;;;;5039658;28;20032;-93
2023/07/12 02:35:50;;;;;;;4.47;1.80;;;20.40;96.80;;;;;;5041195;28;20035;-93
2023/07/12 02:38:15;;;;;;;6.15;1.92;;;20.40;96.50;;;;;;5028990;28;20136;-93
2023/07/12 02:40:41;;;;;;;4.93;1.95;;;20.40;96.50;;;;;;5038190;28;20049;-93
2023/07/12 02:43:12;;;;;;;4.53;1.90;;;20.40;96.50;;;;;;5058233;28;20029;-94
2023/07/12 02:45:38;;;;;;;4.65;2.00;;;20.40;96.60;;;;;;5074177;28;20033;-87
2023/07/12 02:48:04;;;;;;;4.22;1.73;;;20.40;96.60;;;;;;5045862;28;20017;-89
2023/07/12 02:50:30;;;;;;;4.35;2.00;;;20.40;96.90;;;;;;5059930;28;20036;-88
2023/07/12 02:52:55;;;;;;;3.50;1.42;;;20.40;96.60;;;;;;5060718;28;20037;-89
2023/07/12 02:55:24;;;;;;;4.95;1.60;;;20.30;96.60;;;;;;5022962;28;20029;-88
2023/07/12 02:57:49;;;;;;;4.07;1.50;;;20.30;96.60;;;;;;5039223;28;20132;-90
2023/07/12 03:00:18;;;;;;;4.10;1.55;;;20.30;96.50;;;;;;5038942;28;20025;-88
2023/07/12 03:02:43;;;;;;;6.85;1.75;;;20.30;96.60;;;;;;5039304;28;20536;-89
2023/07/12 03:05:09;;;;;;;7.85;1.65;;;20.30;96.60;;;;;;5039170;28;20183;-89
2023/07/12 03:07:35;;;;;;;5.43;1.88;;;20.20;96.60;;;;;;5022553;28;20029;-88
2023/07/12 03:10:01;;;;;;;4.50;1.63;;;20.20;96.70;;;;;;5056905;28;20105;-89
2023/07/12 03:12:27;;;;;;;3.80;1.70;;;20.20;96.70;;;;;;5038557;28;20041;-88
2023/07/12 03:14:53;;;;;;;4.90;1.92;;;20.20;96.70;;;;;;5022689;28;20033;-90
2023/07/12 03:17:19;;;;;;;3.97;1.70;;;20.20;96.70;;;;;;5038915;28;20376;-88
2023/07/12 03:19:44;;;;;;;3.85;1.75;;;20.20;96.70;;;;;;5039177;28;20029;-89
2023/07/12 03:22:10;;;;;;;2.83;1.33;;;20.20;96.80;;;;;;5038946;28;20029;-88
2023/07/12 03:24:36;;;;;;;5.20;1.83;;;20.10;96.80;;;;;;5021935;28;20088;-88
2023/07/12 03:27:02;;;;;;;3.45;1.30;;;20.10;96.90;;;;;;5038426;28;20530;-88
2023/07/12 03:29:27;;;;;;;2.08;1.40;;;20.10;96.60;;;;;;5022172;28;20068;-88
2023/07/12 03:31:53;;;;;;;3.63;1.52;;;20.00;96.60;;;;;;5038528;28;20057;-88
2023/07/12 03:34:19;;;;;;;4.72;1.90;;;20.00;96.60;;;;;;5022103;28;20025;-89
2023/07/12 03:36:45;;;;;;;5.72;1.95;;;19.90;96.60;;;;;;5038388;28;20108;-89
2023/07/12 03:39:14;;;;;;;4.10;1.65;;;19.90;96.60;;;;;;5038759;28;20025;-88
2023/07/12 03:41:39;;;;;;;3.08;1.50;;;19.90;96.70;;;;;;5055791;28;20108;-88
2023/07/12 03:44:05;;;;;;;4.78;1.63;;;19.90;96.70;;;;;;5038299;28;20486;-89
2023/07/12 03:46:31;;;;;;;4.25;1.52;;;19.80;96.70;;;;;;5037956;28;20080;-88
2023/07/12 03:48:56;;;;;;;3.03;1.48;;;19.70;96.70;;;;;;5038368;28;20025;-87
2023/07/12 03:51:22;;;;;;;5.22;2.10;;;19.80;96.80;;;;;;5038208;28;20115;-88
2023/07/12 03:53:49;;;;;;;4.68;1.83;;;19.70;96.80;;;;;;5021533;28;20029;-87
2023/07/12 03:56:15;;;;;;;4.75;1.60;;;19.70;96.80;;;;;;5037917;28;20377;-89
2023/07/12 03:58:41;;;;;;;4.63;2.08;;;19.70;96.80;;;;;;5056151;28;20051;-89
2023/07/12 04:01:10;;;;;;;4.07;2.20;;;19.60;96.90;;;;;;5037858;28;20063;-87
2023/07/12 04:03:37;;;;;;;5.78;2.50;;;19.60;97.00;;;;;;5055910;28;20039;-90
2023/07/12 04:06:03;;;;;;;5.53;2.30;;;19.60;96.90;;;;;;5038426;28;20033;-88
2023/07/12 04:08:29;;;;;;;3.65;2.47;;;19.50;96.90;;;;;;5038509;28;20032;-89
2023/07/12 04:10:56;;;;;;;6.60;2.80;;;19.50;97.30;;;;;;5037396;28;20044;-88
2023/07/12 04:13:24;;;;;;;6.15;2.97;;;19.50;97.00;;;;;;5055154;28;20107;-87
2023/07/12 04:15:55;;;;;;;5.10;3.25;;;19.50;97.10;;;;;;5020849;28;20029;-88
2023/07/12 04:18:22;;;;;;;5.82;3.13;;;19.50;97.00;;;;;;5037642;28;20029;-88
2023/07/12 04:20:47;;;;;;;6.90;3.50;;;19.50;97.00;;;;;;5037391;28;20029;-87
2023/07/12 04:23:13;;;;;;;5.50;3.47;;;19.50;97.00;;;;;;5021814;28;20032;-88
2023/07/12 04:25:39;;;;;;;5.45;3.67;;;19.50;97.00;;;;;;5054830;28;20061;-89
2023/07/12 04:28:04;;;;;;;6.78;4.00;;;19.50;97.10;;;;;;5036945;28;20393;-87
2023/07/12 04:30:30;;;;;;;6.15;4.20;;;19.50;97.10;;;;;;5021302;28;20443;-88
2023/07/12 04:32:55;;;;;;;5.93;4.55;;;19.50;97.10;;;;;;5055410;28;20358;-88
2023/07/12 04:35:21;;;;;;;8.05;4.85;;;19.50;97.10;;;;;;5020681;28;20464;-86
2023/07/12 04:37:49;;;;;;;7.50;4.70;;;19.50;97.20;;;;;;5057785;28;20025;-87
2023/07/12 04:40:17;;;;;;;10.20;5.53;;;19.50;97.20;;;;;;5043970;28;20025;-84
2023/07/12 04:42:43;;;;;;;7.65;5.63;;;19.50;97.20;;;;;;5060799;28;20009;-87
2023/07/12 04:45:10;;;;;;;7.22;4.95;;;19.50;97.20;;;;;;5060065;28;20044;-88
2023/07/12 04:47:36;;;;;;;7.72;5.35;;;19.50;97.20;;;;;;5059633;28;20043;-88
2023/07/12 04:50:07;;;;;;;8.77;6.28;;;19.50;97.20;;;;;;5055279;28;20028;-87
2023/07/12 04:52:33;;;;;;;7.80;5.90;;;19.50;97.30;;;;;;5037374;28;20098;-88
2023/07/12 04:55:01;;;;;;;9.48;6.60;;;19.50;97.30;;;;;;5020220;28;20025;-82
2023/07/12 04:57:27;;;;;;;7.88;6.28;;;19.50;97.30;;;;;;5053810;28;20017;-81
2023/07/12 04:59:55;;;;;;;8.40;6.38;;;19.50;97.40;;;;;;5035642;28;20021;-82
2023/07/12 05:02:21;;;;;;;8.00;6.90;;;19.50;97.30;;;;;;5018932;28;20033;-81
2023/07/12 05:04:46;;;;;;;7.43;6.57;;;19.50;97.40;;;;;;5019153;28;20033;-81
2023/07/12 05:07:12;;;;;;;9.40;6.90;;;19.50;97.40;;;;;;5035801;28;20088;-82
2023/07/12 05:09:38;;;;;;;10.73;6.88;;;19.50;97.40;;;;;;5035838;28;20025;-82
2023/07/12 05:12:04;;;;;;;10.05;7.50;;;19.50;97.40;;;;;;5019106;28;20017;-81
2023/07/12 05:14:30;;;;;;;9.00;8.10;;;19.60;97.50;;;;;;5019169;28;20032;-82
2023/07/12 05:16:55;;;;;;;10.23;7.43;;;19.60;97.40;;;;;;5035344;28;20033;-82
2023/07/12 05:19:21;;;;;;;8.25;7.00;;;19.60;97.40;;;;;;5053566;28;20029;-82
2023/07/12 05:21:46;;;;;;;8.48;6.63;;;19.60;97.40;;;;;;5035509;28;20384;-81
2023/07/12 05:24:12;;;;;;;8.70;7.10;;;19.60;97.40;;;;;;5019240;28;20025;-81
2023/07/12 05:26:38;;;;;;;9.82;7.38;;;19.60;97.40;;;;;;5054860;28;20037;-82
2023/07/12 05:29:04;;;;;;;10.75;7.28;;;19.50;97.40;;;;;;5022882;28;20088;-82
2023/07/12 05:31:29;;;;;;;9.75;6.38;;;19.60;97.40;;;;;;5023243;28;20463;-81
2023/07/12 05:33:55;;;;;;;10.68;6.80;;;19.60;97.40;;;;;;5039828;28;20037;-82
2023/07/12 05:36:20;;;;;;;10.05;6.20;;;19.60;97.40;;;;;;5023310;28;20131;-81
2023/07/12 05:38:46;;;;;;;8.15;6.18;;;19.60;97.40;;;;;;5057015;28;20108;-81
2023/07/12 05:41:12;;;;;;;7.97;5.78;;;19.60;97.40;;;;;;5023120;28;20024;-81
2023/07/12 05:43:40;;;;;;;8.35;5.53;;;19.70;97.40;;;;;;5039318;28;20048;-81
2023/07/12 05:46:06;;;;;;;8.75;4.93;;;19.70;97.40;;;;;;5023241;28;20041;-81
2023/07/12 05:48:32;;;;;;;10.73;5.70;;;19.70;97.40;;;;;;5057431;28;20029;-81
2023/07/12 05:50:59;;;;;;;8.18;5.25;;;19.70;97.30;;;;;;5039065;28;20048;-82
2023/07/12 05:53:25;;;;;;;8.43;5.07;;;19.70;97.30;;;;;;5039271;28;20029;-82
2023/07/12 05:55:58;;;;;;;8.85;4.72;;;19.70;97.30;;;;;;5022254;28;20039;-82
2023/07/12 05:58:23;;;;;;;7.25;4.35;;;19.80;97.30;;;;;;5022550;28;20025;-81
2023/07/12 06:00:55;;;;;;;8.45;4.20;;;19.80;97.20;;;;;;5038749;28;20029;-81
2023/07/12 06:03:21;;;;;;;6.93;3.60;;;19.70;97.20;;;;;;5022538;28;20063;-82
2023/07/12 06:05:46;;;;;;;7.82;4.40;;;19.80;97.20;;;;;;5038848;28;20037;-82
2023/07/12 06:08:12;;;;;;;10.35;4.10;;;19.70;97.10;;;;;;5038981;28;20468;-82
2023/07/12 06:10:38;;;;;;;4.68;3.35;;;19.70;97.10;;;;;;5039045;28;20026;-82
2023/07/12 06:13:03;;;;;;;6.07;3.75;;;19.70;97.10;;;;;;5022356;28;20040;-82
2023/07/12 06:15:29;;;;;;;7.97;3.83;;;19.70;97.10;;;;;;5022573;28;20033;-82
2023/07/12 06:17:55;;;;;;;6.63;3.78;;;19.70;97.00;;;;;;5038657;28;20131;-82
2023/07/12 06:20:20;;;;;;;4.82;3.00;;;19.70;97.00;;;;;;5022363;28;20388;-82
2023/07/12 06:22:46;;;;;;;5.78;3.58;;;19.70;97.00;;;;;;5021998;28;20413;-83
2023/07/12 06:25:12;;;;;;;8.48;3.35;;;19.70;97.00;;;;;;5056755;28;20037;-82
2023/07/12 06:27:37;;;;;;;5.68;3.35;;;19.70;97.00;;;;;;5038250;28;20488;-82
2023/07/12 06:30:03;;;;;;;5.25;3.10;;;19.70;96.90;;;;;;5022544;28;20031;-82
2023/07/12 06:32:29;;;;;;;5.43;3.42;;;19.80;97.10;;;;;;5022192;28;20120;-82
2023/07/12 06:34:55;;;;;;;9.82;4.38;;;19.90;97.10;;;;;;5056690;28;20025;-83
2023/07/12 06:37:20;;;;;;;8.07;3.50;;;19.90;96.90;;;;;;5046323;28;20005;-81
2023/07/12 06:39:46;;;;;;;7.55;3.40;;;19.90;96.90;;;;;;5046514;28;20025;-82
2023/07/12 06:42:12;;;;;;;9.32;3.63;;;20.00;97.10;;;;;;5046842;28;20013;-82
2023/07/12 06:44:37;;;;;;;8.10;3.50;;;20.00;96.70;;;;;;5046269;28;20021;-81
2023/07/12 06:47:03;;;;;;;8.63;3.40;;;20.00;96.70;;;;;;5042396;28;20067;-82
2023/07/12 06:49:29;;;;;;;7.00;3.47;;;20.00;96.60;;;;;;5057367;28;20430;-83
2023/07/12 06:51:57;;;;;;;4.88;3.10;;;20.10;96.70;;;;;;5022267;28;20029;-82
2023/07/12 06:54:23;;;;;;;8.05;3.33;;;20.10;96.70;;;;;;5056382;28;20032;-82
2023/07/12 06:56:48;;;;;;;7.25;3.20;;;20.20;96.70;;;;;;5021799;28;20052;-83
2023/07/12 06:59:14;;;;;;;7.97;3.30;;;20.10;96.70;;;;;;5038123;28;20079;-82
2023/07/12 07:01:40;;;;;;;7.05;3.33;;;20.20;96.60;;;;;;5055731;28;20472;-82
2023/07/12 07:04:06;;;;;;;6.35;3.67;;;20.20;96.60;;;;;;5021585;28;20551;-82
2023/07/12 07:06:31;;;;;;;6.22;3.58;;;20.20;96.50;;;;;;5021554;28;20488;-81
2023/07/12 07:08:57;;;;;;;6.53;3.17;;;20.20;96.50;;;;;;5055494;28;20055;-82
2023/07/12 07:11:23;;;;;;;6.75;3.35;;;20.30;96.80;;;;;;5021486;28;20029;-82
2023/07/12 07:13:50;;;;;;;7.07;3.88;;;20.30;96.50;;;;;;5021396;28;20080;-82
2023/07/12 07:16:17;;;;;;;6.40;3.30;;;20.40;96.50;;;;;;5021202;28;20060;-82
2023/07/12 07:18:43;;;;;;;8.30;3.95;;;20.40;96.50;;;;;;5055727;28;20032;-82
2023/07/12 07:21:09;;;;;;;5.03;3.30;;;20.40;96.40;;;;;;5037596;28;20040;-82
2023/07/12 07:23:35;;;;;;;7.53;4.00;;;20.40;96.40;;;;;;5038220;28;20033;-82
2023/07/12 07:26:02;;;;;;;6.90;3.90;;;20.40;96.50;;;;;;5020802;28;20037;-83
2023/07/12 07:28:28;;;;;;;7.55;3.40;;;20.40;96.50;;;;;;5037396;28;20369;-83
2023/07/12 07:30:57;;;;;;;7.53;3.90;;;20.40;96.50;;;;;;5020959;28;20036;-82
2023/07/12 07:33:25;;;;;;;6.40;3.63;;;20.50;96.50;;;;;;5037703;28;20078;-83
2023/07/12 07:35:56;;;;;;;7.55;3.60;;;20.60;96.40;;;;;;5020923;28;20549;-83
2023/07/12 07:38:26;;;;;;;7.65;3.60;;;20.60;96.40;;;;;;5038710;28;20027;-83
2023/07/12 07:40:53;;;;;;;9.68;3.38;;;20.60;96.40;;;;;;5055430;28;20083;-83
2023/07/12 07:43:19;;;;;;;5.07;3.17;;;20.70;96.30;;;;;;5037217;28;20376;-82
2023/07/12 07:45:44;;;;;;;7.57;3.13;;;20.60;96.30;;;;;;5054749;28;20033;-83
2023/07/12 07:48:10;;;;;;;6.43;3.50;;;20.60;96.30;;;;;;5036789;28;20384;-83
2023/07/12 07:50:38;;;;;;;7.97;3.60;;;20.70;96.20;;;;;;5036148;28;20039;-82
2023/07/12 07:53:04;;;;;;;6.55;2.80;;;20.70;96.10;;;;;;5054541;28;20051;-84
2023/07/12 07:55:31;;;;;;;7.95;3.42;;;20.70;96.10;;;;;;5037040;28;20033;-83
2023/07/12 07:57:57;;;;;;;9.77;2.95;;;20.70;96.00;;;;;;5054802;28;20048;-83
2023/07/12 08:00:23;;;;;;;6.28;3.08;;;20.70;96.00;;;;;;5037087;28;20083;-83
2023/07/12 08:02:49;;;;;;;8.85;3.22;;;20.80;96.10;;;;;;5036542;28;20104;-83
2023/07/12 08:05:15;;;;;;;9.93;3.13;;;20.80;96.00;;;;;;5036404;28;20095;-82
2023/07/12 08:07:44;;;;;;;7.75;3.22;;;20.80;95.90;;;;;;5020424;28;20491;-83
2023/07/12 08:10:12;;;;;;;7.55;3.00;;;20.90;96.00;;;;;;5054516;28;20372;-83
2023/07/12 08:12:38;;;;;;;5.53;3.15;;;20.90;95.90;;;;;;5054503;28;20021;-83
2023/07/12 08:15:05;;;;;;;5.32;2.72;;;20.90;95.90;;;;;;5020079;28;20091;-83
2023/07/12 08:17:31;;;;;;;7.22;2.90;;;21.00;95.90;;;;;;5036774;28;20361;-83
2023/07/12 08:19:56;;;;;;;6.03;2.88;;;21.00;95.80;;;;;;5036692;28;20035;-83
2023/07/12 08:22:22;;;;;;;8.00;3.20;;;21.00;95.80;;;;;;5036563;28;20100;-83
2023/07/12 08:24:48;;;;;;;7.97;3.42;;;21.00;95.80;;;;;;5020766;28;20033;-82
2023/07/12 08:27:16;;;;;;;7.75;2.95;;;20.90;95.70;;;;;;5020196;28;20484;-82
2023/07/12 08:29:42;;;;;;;5.65;3.08;;;21.00;95.70;;;;;;5021208;28;20037;-82
2023/07/12 08:32:09;;;;;;;4.93;3.28;;;21.00;95.60;;;;;;5054134;28;20021;-84
2023/07/12 08:34:34;;;;;;;7.80;3.15;;;21.00;95.40;;;;;;5061023;28;20025;-83
2023/07/12 08:37:00;;;;;;;6.97;2.92;;;21.00;95.40;;;;;;5044638;28;20038;-84
2023/07/12 08:39:27;;;;;;;5.78;2.90;;;21.00;95.40;;;;;;5060790;28;20049;-84
2023/07/12 08:41:53;;;;;;;7.00;3.33;;;21.00;95.40;;;;;;5061113;28;20070;-81
2023/07/12 08:44:19;;;;;;;8.98;3.53;;;21.10;95.50;;;;;;5063089;28;20067;-82
2023/07/12 08:46:57;;;;;;;5.47;3.00;;;21.10;95.40;;;;;;5055212;28;20056;-82
2023/07/12 08:49:24;;;;;;;8.30;3.72;;;21.20;95.40;;;;;;5036683;28;20112;-82
2023/07/12 08:51:52;;;;;;;5.82;3.50;;;21.30;95.50;;;;;;5036600;28;20021;-82
2023/07/12 08:54:25;;;;;;;7.93;3.25;;;21.40;95.40;;;;;;5019851;28;20094;-81
2023/07/12 08:57:07;;;;;;;8.02;3.47;;;21.40;95.20;;;;;;5053451;28;20388;-82
2023/07/12 08:59:33;;;;;;;7.28;3.67;;;21.50;95.30;;;;;;5053986;28;20108;-82
2023/07/12 09:02:01;;;;;;;8.23;2.90;;;21.50;95.10;;;;;;5035665;28;20052;-82
2023/07/12 09:04:33;;;;;;;6.28;2.88;;;21.60;95.10;;;;;;5019467;28;20086;-83
2023/07/12 09:07:07;;;;;;;8.73;2.70;;;21.60;94.90;;;;;;5035735;28;20522;-83
2023/07/12 09:09:38;;;;;;;6.32;2.75;;;21.60;94.90;;;;;;5035760;28;20024;-83
2023/07/12 09:12:07;;;;;;;;;;;21.60;94.80;;;;;;5053673;28;20469;-83
2023/07/12 09:14:35;;;;;;;7.57;3.08;;;21.60;94.70;;;;;;5053346;28;20348;-83
2023/07/12 09:17:01;;;;;;;6.95;2.63;;;21.70;94.70;;;;;;5035542;28;20021;-82
2023/07/12 09:19:32;;;;;;;6.25;2.78;;;21.70;94.70;;;;;;5053122;28;20075;-83
2023/07/12 09:22:13;;;;;;;4.97;2.55;;;21.80;94.80;;;;;;5035702;28;20027;-82
2023/07/12 09:24:44;;;;;;;5.80;2.80;;;21.90;94.70;;;;;;5035773;28;20017;-82
2023/07/12 09:27:19;;;;;;;5.95;2.30;;;22.00;94.60;;;;;;5053496;28;20035;-83
2023/07/12 09:29:45;;;;;;;3.92;2.20;;;22.10;94.60;;;;;;5053658;28;20091;-83
2023/07/12 09:32:23;;;;;;;6.03;2.63;;;22.20;94.40;;;;;;5035307;28;20041;-84
2023/07/12 09:34:50;;;;;;;6.13;2.97;;;22.20;94.20;;;;;;5053421;28;20029;-83
2023/07/12 09:37:19;;;;;;;4.65;2.33;;;22.30;94.20;;;;;;5018524;28;20106;-83
2023/07/12 09:39:56;;;;;;;6.07;2.63;;;22.40;94.00;;;;;;5053053;28;20025;-83
2023/07/12 09:42:22;;;;;;;7.47;2.70;;;22.50;93.90;;;;;;5035371;28;20017;-82
2023/07/12 09:44:48;;;;;;;7.35;2.95;;;22.50;93.80;;;;;;5018958;28;20191;-83
2023/07/12 09:47:37;;;;;;;6.45;2.53;;;22.40;93.80;;;;;;5019070;28;20480;-83
2023/07/12 09:50:26;;;;;;;5.93;2.30;;;22.50;93.70;;;;;;5035348;28;20017;-83
2023/07/12 09:53:00;;;;;;;5.00;2.22;;;22.50;93.50;;;;;;5035334;28;20024;-83
2023/07/12 09:56:01;;;;;;;8.02;2.60;;;22.60;93.30;;;;;;5052927;28;20078;-83
2023/07/12 09:58:37;;;;;;;7.80;2.20;;;22.70;93.20;;;;;;5033477;28;20107;-83
2023/07/12 10:01:21;;;;;;;6.63;2.22;;;22.70;93.20;;;;;;5035478;28;20138;-82
2023/07/12 10:03:54;;;;;;;4.38;2.10;;;22.80;93.00;;;;;;5035574;28;20048;-83
2023/07/12 10:06:42;;;;;;;6.32;2.30;;;22.80;92.80;;;;;;5035071;28;20479;-83
2023/07/12 10:09:16;;;;;;;6.82;2.47;;;22.70;92.10;;;;;;5052839;28;20037;-82
2023/07/12 10:11:50;;;;;;;4.45;2.20;;;22.70;92.30;;;;;;5052970;28;20020;-82
2023/07/12 10:14:18;;;;;;;3.63;2.20;;;22.70;92.50;;;;;;5056621;28;20039;-83
2023/07/12 10:16:51;;;;;;;8.27;2.42;;;22.80;92.40;;;;;;5038788;28;20495;-82
2023/07/12 10:19:28;;;;;;;5.28;2.10;;;22.80;92.20;;;;;;5056864;28;20031;-83
2023/07/12 10:21:57;;;;;;;6.50;2.30;;;22.90;92.10;;;;;;5038932;28;20068;-83
2023/07/12 10:24:31;;;;;;;5.43;1.92;;;23.00;92.10;;;;;;5039045;28;20380;-83
2023/07/12 10:27:00;;;;;;;7.97;2.20;;;23.00;91.70;;;;;;5057135;28;20029;-83
2023/07/12 10:29:50;;;;;;;3.83;2.22;;;23.00;91.70;;;;;;5051867;28;20065;-83
2023/07/12 10:32:36;;;;;;;;;;;23.10;91.70;;;;;;5063088;28;20017;-85
2023/07/12 10:35:42;;;;;;;6.40;2.00;;;23.20;91.80;;;;;;5080703;28;19893;-83
2023/07/12 10:38:16;;;;;;;5.72;2.15;;;23.20;91.70;;;;;;5060233;28;20051;-82
2023/07/12 10:40:53;;;;;;;4.50;2.40;;;23.30;91.60;;;;;;5080724;28;20017;-82
2023/07/12 10:43:33;;;;;;;3.78;1.88;;;23.30;91.50;;;;;;5056779;28;20119;-83
2023/07/12 10:46:06;;;;;;;7.07;2.58;;;23.30;91.50;;;;;;5057291;28;20111;-83
2023/07/12 10:48:32;;;;;;;4.90;1.92;;;23.30;91.10;;;;;;5039261;28;20032;-83
2023/07/12 10:51:38;;;;;;;5.95;2.17;;;23.30;91.20;;;;;;5022524;28;20033;-83
2023/07/12 10:54:21;;;;;;;6.60;2.53;;;23.30;91.10;;;;;;5038034;28;20115;-84
2023/07/12 10:56:52;;;;;;;6.65;2.33;;;23.20;91.10;;;;;;5024447;28;20033;-83
2023/07/12 10:59:30;;;;;;;4.32;2.00;;;23.20;91.30;;;;;;5038081;28;20074;-84
2023/07/12 11:02:18;;;;;;;4.35;2.10;;;23.20;91.60;;;;;;5038383;28;20032;-84
2023/07/12 11:04:49;;;;;;;5.20;1.90;;;23.10;91.80;;;;;;5056025;28;20021;-83
2023/07/12 11:07:14;;;;;;;5.70;2.20;;;23.00;92.00;;;;;;5038155;28;20033;-83
2023/07/12 11:09:46;;;;;;;8.65;2.28;;;22.90;92.10;;;;;;5038180;28;20483;-82
2023/07/12 11:12:14;;;;;;;6.30;2.03;;;22.90;92.30;;;;;;5038240;28;20079;-82
2023/07/12 11:14:41;;;;;;;3.78;1.67;;;22.90;92.50;;;;;;5037797;28;20017;-83
2023/07/12 11:17:06;;;;;;;3.92;2.10;;;22.90;92.50;;;;;;5038003;28;20025;-83
2023/07/12 11:19:41;;;;;;;4.90;1.73;;;22.90;92.60;;;;;;5055602;28;20032;-83
2023/07/12 11:22:20;;;;;;;3.72;1.90;;;22.90;92.70;;;;;;5055099;28;20017;-83
2023/07/12 11:24:48;;;;;;;5.70;1.73;;;23.00;92.70;;;;;;5036559;28;20055;-83
2023/07/12 11:27:36;;;;;;;4.38;2.00;;;23.00;92.80;;;;;;5037463;28;20382;-83
2023/07/12 11:30:24;;;;;;;4.90;1.90;;;23.00;92.70;;;;;;5037989;28;20076;-83
2023/07/12 11:32:59;;;;;;;6.63;2.10;;;23.10;92.60;;;;;;5037684;28;20021;-84
2023/07/12 11:36:02;;;;;;;4.57;1.90;;;23.10;92.40;;;;;;5055427;28;20029;-83
2023/07/12 11:38:31;;;;;;;5.15;1.90;;;23.20;92.40;;;;;;5037523;28;20488;-84
2023/07/12 11:41:02;;;;;;;4.20;1.80;;;23.20;92.00;;;;;;5037379;28;20028;-83
2023/07/12 11:43:40;;;;;;;5.70;2.28;;;23.20;91.90;;;;;;5055104;28;20025;-83
2023/07/12 11:46:17;;;;;;;5.78;2.58;;;23.20;91.70;;;;;;5055178;28;20508;-83
2023/07/12 11:48:55;;;;;;;6.30;2.60;;;23.20;91.80;;;;;;5037062;28;20028;-83
2023/07/12 11:51:30;;;;;;;4.45;2.20;;;23.30;91.80;;;;;;5037438;28;20021;-84
2023/07/12 11:53:57;;;;;;;6.82;2.25;;;23.30;91.80;;;;;;5055222;28;20103;-83
2023/07/12 11:56:24;;;;;;;3.63;1.98;;;23.40;91.60;;;;;;5036819;28;20070;-84
2023/07/12 11:58:50;;;;;;;4.10;2.00;;;23.40;90.70;;;;;;5055040;28;20029;-83
2023/07/12 12:01:18;;;;;;;4.95;1.95;;;23.40;90.60;;;;;;5037143;28;20048;-83
2023/07/12 12:03:48;;;;;;;4.88;1.77;;;23.40;90.70;;;;;;5054808;28;20020;-84
2023/07/12 12:06:14;;;;;;;3.75;1.73;;;23.50;90.70;;;;;;5036829;28;20056;-83
2023/07/12 12:08:47;;;;;;;4.07;2.05;;;23.50;90.60;;;;;;5020476;28;20029;-83
2023/07/12 12:11:13;;;;;;;7.78;2.22;;;23.60;90.40;;;;;;5054899;28;20100;-83
2023/07/12 12:13:45;;;;;;;3.88;1.77;;;23.60;90.30;;;;;;5020139;28;20140;-83
2023/07/12 12:16:29;;;;;;;6.95;2.08;;;23.60;90.40;;;;;;5036969;28;20489;-82
2023/07/12 12:19:07;;;;;;;3.45;1.65;;;23.60;90.10;;;;;;5054475;28;20104;-83
2023/07/12 12:21:33;;;;;;;3.05;1.38;;;23.60;90.10;;;;;;5054149;28;20399;-83
2023/07/12 12:24:14;;;;;;;4.35;1.80;;;23.70;89.60;;;;;;5020322;28;20109;-83
2023/07/12 12:26:41;;;;;;;3.53;1.77;;;23.70;88.90;;;;;;5036098;28;20017;-82
2023/07/12 12:29:17;;;;;;;4.05;1.70;;;23.70;88.60;;;;;;5054840;28;20072;-82
2023/07/12 12:32:02;;;;;;;5.15;1.80;;;23.70;87.60;;;;;;5036536;28;20051;-82
2023/07/12 12:34:36;;;;;;;4.38;1.75;;;23.60;87.10;;;;;;5046716;28;20009;-84
2023/07/12 12:37:10;;;;;;;4.53;2.00;;;23.60;87.50;;;;;;5078161;28;20025;-83
2023/07/12 12:39:37;;;;;;;4.88;1.60;;;23.70;86.90;;;;;;5060845;28;20021;-82
2023/07/12 12:42:23;;;;;;;4.68;1.85;;;23.70;87.00;;;;;;5044549;28;20096;-81
2023/07/12 12:44:51;;;;;;;5.57;2.08;;;23.70;86.70;;;;;;5051731;28;20067;-82
2023/07/12 12:47:19;;;;;;;4.57;1.80;;;23.80;87.00;;;;;;5056644;28;20036;-87
2023/07/12 12:49:45;;;;;;;3.95;1.80;;;23.80;86.20;;;;;;5037183;28;20124;-85
2023/07/12 12:52:32;;;;;;;3.83;1.77;;;23.80;86.00;;;;;;5036103;28;20078;-85
2023/07/12 12:55:06;;;;;;;4.25;1.75;;;23.80;85.60;;;;;;5052762;28;20047;-85
2023/07/12 12:57:34;;;;;;;5.78;1.73;;;23.90;85.80;;;;;;5053758;28;20070;-86
2023/07/12 13:00:05;;;;;;;3.00;1.70;;;24.00;85.60;;;;;;5019515;28;20025;-85